Time;durP1;ratioP1;P1;durP2;ratioP2;P2;SDS_P1;SDS_P2;PMS_P1;PMS_P2;Temp;Humidity;BMP_temperature;BMP_pressure;BME280_temperature;BME280_humidity;BME280_pressure;Samples;Min_cycle;Max_cycle;Signal;HPM_P1;HPM_P2
2021/12/04 00:02:26;;;;;;;14.07;1.60;;;20.20;99.90;;;;;;5017878;28;20026;-65
2021/12/04 00:04:55;;;;;;;8.38;1.90;;;20.30;99.90;;;;;;5013077;28;20022;-66
2021/12/04 00:07:23;;;;;;;9.27;1.67;;;20.30;99.90;;;;;;5018385;28;20011;-65
2021/12/04 00:09:51;;;;;;;11.25;1.85;;;20.10;99.90;;;;;;5029916;28;20030;-65
2021/12/04 00:12:19;;;;;;;8.02;1.95;;;19.90;99.90;;;;;;5014801;28;20034;-66
2021/12/04 00:14:48;;;;;;;9.73;1.67;;;19.90;99.90;;;;;;5030190;28;20050;-65
2021/12/04 00:17:15;;;;;;;7.93;1.50;;;19.90;99.90;;;;;;5015956;28;20037;-65
2021/12/04 00:19:43;;;;;;;11.70;3.10;;;19.90;99.90;;;;;;5017246;28;20017;-65
2021/12/04 00:22:10;;;;;;;10.88;1.70;;;19.90;99.90;;;;;;5013684;28;20050;-64
2021/12/04 00:24:37;;;;;;;12.05;1.50;;;19.90;99.90;;;;;;5017842;28;20038;-65
2021/12/04 00:27:05;;;;;;;10.73;1.85;;;19.90;99.90;;;;;;5016510;28;20027;-65
2021/12/04 00:29:32;;;;;;;8.32;1.35;;;19.90;99.90;;;;;;5016330;28;20045;-65
2021/12/04 00:32:03;;;;;;;11.52;1.75;;;20.00;99.90;;;;;;5014250;28;20042;-66
2021/12/04 00:34:33;;;;;;;10.60;1.77;;;20.10;99.90;;;;;;4998883;28;20082;-66
2021/12/04 00:37:15;;;;;;;10.60;2.25;;;20.10;99.90;;;;;;5017240;28;20073;-65
2021/12/04 00:50:44;;;;;;;11.73;2.38;;;20.10;99.90;;;;;;5014708;28;20410;-66
2021/12/04 00:53:11;;;;;;;12.52;2.70;;;20.30;99.90;;;;;;5000625;28;20030;-66
2021/12/04 00:55:39;;;;;;;13.43;3.35;;;20.50;99.90;;;;;;5020966;28;20064;-65
2021/12/04 00:58:06;;;;;;;12.52;2.45;;;20.40;99.90;;;;;;5016577;28;20045;-66
2021/12/04 01:00:33;;;;;;;10.05;2.33;;;20.40;99.90;;;;;;5016156;28;20032;-66
2021/12/04 01:03:00;;;;;;;9.15;2.03;;;20.60;99.90;;;;;;5013495;28;20054;-67
2021/12/04 01:05:28;;;;;;;10.73;2.38;;;20.50;99.90;;;;;;5022819;28;20062;-68
2021/12/04 01:07:55;;;;;;;13.02;2.13;;;20.50;99.90;;;;;;5008841;28;20038;-67
2021/12/04 01:10:22;;;;;;;11.35;3.10;;;20.50;99.90;;;;;;5002705;28;20022;-67
2021/12/04 01:12:50;;;;;;;9.98;2.58;;;20.30;99.90;;;;;;5007188;28;20054;-67
2021/12/04 01:15:17;;;;;;;9.45;2.42;;;20.30;99.90;;;;;;5006351;28;20070;-68
2021/12/04 01:17:45;;;;;;;9.00;2.70;;;20.50;99.90;;;;;;5005718;28;20097;-67
2021/12/04 01:20:12;;;;;;;13.63;2.17;;;20.40;99.90;;;;;;5012932;28;20091;-68
2021/12/04 01:22:40;;;;;;;15.75;2.75;;;20.40;99.90;;;;;;5010871;28;20060;-67
2021/12/04 01:25:07;;;;;;;10.25;1.70;;;20.30;99.90;;;;;;5010483;28;20026;-67
2021/12/04 01:27:37;;;;;;;10.95;2.78;;;20.30;99.90;;;;;;5008145;28;20042;-67
2021/12/04 01:30:08;;;;;;;8.98;2.83;;;20.20;99.90;;;;;;5006196;28;20023;-67
2021/12/04 01:32:35;;;;;;;8.07;2.03;;;20.10;99.90;;;;;;5022473;28;20064;-67
2021/12/04 01:35:02;;;;;;;9.00;2.58;;;20.30;99.90;;;;;;5005985;28;20045;-66
2021/12/04 01:37:30;;;;;;;7.60;2.22;;;20.20;99.90;;;;;;4995634;28;20049;-66
2021/12/04 01:39:57;;;;;;;7.45;2.25;;;20.10;99.90;;;;;;5007734;28;20022;-68
2021/12/04 01:42:24;;;;;;;13.52;1.98;;;20.10;99.90;;;;;;5001601;28;20045;-68
2021/12/04 01:44:52;;;;;;;11.75;2.95;;;20.40;99.90;;;;;;5010455;28;20056;-67
2021/12/04 01:47:20;;;;;;;11.10;2.08;;;20.40;99.90;;;;;;5006454;28;20041;-68
2021/12/04 01:49:50;;;;;;;12.32;3.00;;;20.40;99.90;;;;;;5012019;28;20027;-67
2021/12/04 01:52:18;;;;;;;10.25;2.35;;;20.50;99.90;;;;;;5006607;28;20034;-67
2021/12/04 01:54:47;;;;;;;9.98;1.60;;;20.30;99.90;;;;;;4994788;28;20079;-68
2021/12/04 01:57:15;;;;;;;13.95;2.40;;;20.40;99.90;;;;;;4997745;28;20033;-68
2021/12/04 01:59:43;;;;;;;10.95;2.13;;;20.40;99.90;;;;;;4995878;28;20015;-69
2021/12/04 02:02:11;;;;;;;10.95;1.92;;;20.40;99.90;;;;;;4998525;28;20030;-68
2021/12/04 02:04:38;;;;;;;10.77;1.40;;;20.40;99.90;;;;;;5011863;28;20034;-68
2021/12/04 02:07:07;;;;;;;7.45;1.63;;;20.60;99.90;;;;;;5024863;28;21109;-68
2021/12/04 02:09:36;;;;;;;7.57;1.77;;;20.70;99.90;;;;;;5011372;28;20022;-68
2021/12/04 02:12:07;;;;;;;7.90;1.60;;;20.60;99.90;;;;;;5014699;28;21870;-68
2021/12/04 02:14:35;;;;;;;8.43;1.58;;;20.50;99.90;;;;;;5029643;28;20073;-67
2021/12/04 02:17:03;;;;;;;6.22;1.63;;;20.50;99.90;;;;;;5011187;28;20010;-67
2021/12/04 02:19:31;;;;;;;12.10;1.98;;;20.50;99.90;;;;;;5014861;28;20038;-67
2021/12/04 02:21:59;;;;;;;9.60;1.13;;;20.60;99.90;;;;;;5014864;28;20030;-67
2021/12/04 02:24:26;;;;;;;7.18;1.38;;;20.70;99.90;;;;;;5010314;28;20065;-66
2021/12/04 02:26:54;;;;;;;8.98;1.75;;;20.80;99.90;;;;;;5017154;28;20013;-66
2021/12/04 02:29:21;;;;;;;6.95;1.23;;;20.80;99.90;;;;;;5006447;28;20022;-65
2021/12/04 02:31:51;;;;;;;5.95;1.35;;;20.80;99.90;;;;;;5006965;28;20176;-67
2021/12/04 02:34:23;;;;;;;4.65;0.75;;;20.90;99.90;;;;;;5005685;28;20031;-66
2021/12/04 02:36:50;;;;;;;4.35;0.73;;;21.00;99.90;;;;;;5004332;28;20033;-68
2021/12/04 02:39:30;;;;;;;6.90;1.30;;;21.70;99.90;;;;;;5009987;28;20030;-67
2021/12/04 02:41:58;;;;;;;9.73;1.10;;;22.10;99.90;;;;;;5015601;28;20026;-68
2021/12/04 02:44:34;;;;;;;4.85;1.27;;;21.80;99.90;;;;;;5030270;28;20010;-69
2021/12/04 02:47:02;;;;;;;7.90;1.02;;;21.70;99.90;;;;;;5015395;28;20007;-67
2021/12/04 02:49:29;;;;;;;5.57;1.45;;;21.40;99.90;;;;;;5016078;28;20089;-68
2021/12/04 02:52:00;;;;;;;6.10;1.08;;;21.40;99.90;;;;;;5012220;28;20010;-68
2021/12/04 02:54:29;;;;;;;6.80;1.60;;;21.30;99.90;;;;;;5030267;28;20037;-69
2021/12/04 02:56:56;;;;;;;8.05;1.00;;;21.40;99.90;;;;;;5011018;28;20034;-67
2021/12/04 02:59:24;;;;;;;7.80;1.05;;;21.30;99.90;;;;;;5016177;28;20077;-67
2021/12/04 03:01:55;;;;;;;6.35;1.48;;;21.40;99.90;;;;;;5010681;28;20014;-67
2021/12/04 03:04:26;;;;;;;6.97;1.27;;;21.20;99.90;;;;;;5018378;28;20018;-67
2021/12/04 03:06:54;;;;;;;11.48;1.58;;;21.30;99.90;;;;;;5011475;28;20018;-66
2021/12/04 03:09:21;;;;;;;11.88;1.67;;;21.40;99.90;;;;;;5012123;28;20091;-67
2021/12/04 03:11:49;;;;;;;7.95;1.70;;;21.30;99.90;;;;;;5013619;28;20466;-66
2021/12/04 03:14:17;;;;;;;4.20;1.45;;;21.50;99.90;;;;;;5011256;28;20065;-66
2021/12/04 03:16:44;;;;;;;6.15;1.17;;;21.40;99.90;;;;;;5012226;28;20402;-67
2021/12/04 03:19:11;;;;;;;6.65;1.75;;;21.30;99.90;;;;;;5008276;28;20757;-67
2021/12/04 03:21:39;;;;;;;8.55;1.83;;;21.10;99.90;;;;;;5013977;28;20026;-66
2021/12/04 03:24:10;;;;;;;5.72;1.58;;;21.00;99.90;;;;;;5013436;28;20033;-65
2021/12/04 03:26:38;;;;;;;9.07;1.85;;;21.00;99.90;;;;;;5013007;28;20014;-67
2021/12/04 03:29:10;;;;;;;6.93;1.30;;;21.20;99.90;;;;;;5008574;28;20014;-67
2021/12/04 03:42:42;;;;;;;9.40;1.35;;;21.10;99.90;;;;;;5000860;28;20061;-67
2021/12/04 03:45:10;;;;;;;6.85;1.92;;;21.30;99.90;;;;;;5003161;28;20026;-68
2021/12/04 03:47:42;;;;;;;6.32;1.27;;;21.40;99.90;;;;;;5010365;28;20217;-67
2021/12/04 03:50:10;;;;;;;7.25;1.15;;;21.30;99.90;;;;;;5026553;28;20028;-67
2021/12/04 03:52:37;;;;;;;6.90;1.63;;;21.70;99.90;;;;;;5013075;28;20048;-69
2021/12/04 03:55:07;;;;;;;6.75;1.27;;;21.50;99.90;;;;;;5012487;28;20099;-70
2021/12/04 03:57:35;;;;;;;6.60;1.67;;;21.70;99.90;;;;;;5014402;28;20038;-68
2021/12/04 04:00:05;;;;;;;9.88;1.85;;;21.60;99.90;;;;;;5002839;28;20479;-69
2021/12/04 04:02:32;;;;;;;9.65;1.20;;;21.50;99.90;;;;;;5016634;28;20046;-67
2021/12/04 04:04:59;;;;;;;9.77;1.92;;;21.60;99.90;;;;;;5007232;28;20034;-67
2021/12/04 04:07:27;;;;;;;8.20;1.77;;;21.30;99.90;;;;;;5005673;28;20030;-67
2021/12/04 04:09:54;;;;;;;7.28;1.83;;;21.20;99.90;;;;;;4999013;28;20024;-67
2021/12/04 04:12:21;;;;;;;11.95;1.90;;;21.20;99.90;;;;;;4999094;28;20030;-69
2021/12/04 04:14:49;;;;;;;10.85;1.83;;;21.30;99.90;;;;;;5017518;28;20450;-67
2021/12/04 04:17:16;;;;;;;11.68;1.92;;;21.20;99.90;;;;;;5021728;28;20038;-68
2021/12/04 04:19:43;;;;;;;11.52;1.58;;;21.10;99.90;;;;;;5003584;28;20038;-67
2021/12/04 04:22:10;;;;;;;12.15;2.10;;;21.20;99.90;;;;;;5005672;28;20096;-70
2021/12/04 04:24:38;;;;;;;7.72;1.75;;;21.30;99.90;;;;;;5022787;28;20022;-70
2021/12/04 04:27:05;;;;;;;8.20;1.80;;;20.90;99.90;;;;;;5004268;28;20026;-70
2021/12/04 04:29:33;;;;;;;8.60;2.80;;;20.80;99.90;;;;;;5006242;28;20022;-67
2021/12/04 04:32:00;;;;;;;8.55;2.70;;;20.70;99.90;;;;;;5001993;28;20022;-68
2021/12/04 04:34:31;;;;;;;10.68;2.40;;;20.70;99.90;;;;;;5000729;28;20302;-68
2021/12/04 04:37:23;;;;;;;9.07;2.58;;;20.60;99.90;;;;;;5003027;28;20031;-69
2021/12/04 05:12:28;;;;;;;12.30;3.72;;;20.20;99.90;;;;;;5003920;28;20475;-69
2021/12/04 05:15:01;;;;;;;11.63;3.40;;;20.10;99.90;;;;;;5014591;28;20061;-69
2021/12/04 05:17:52;;;;;;;16.42;4.55;;;20.00;99.90;;;;;;4995105;28;20046;-69
2021/12/04 05:20:37;;;;;;;16.55;3.22;;;20.00;99.90;;;;;;5011968;28;20058;-67
2021/12/04 05:23:07;;;;;;;15.30;3.80;;;20.00;99.90;;;;;;5004543;28;20078;-72
2021/12/04 05:25:36;;;;;;;17.63;3.60;;;20.00;99.90;;;;;;5019013;28;20058;-68
2021/12/04 05:28:08;;;;;;;17.05;4.13;;;20.10;99.90;;;;;;4999897;28;20025;-68
2021/12/04 05:30:36;;;;;;;17.58;3.92;;;20.10;99.90;;;;;;5002766;28;20105;-67
2021/12/04 05:33:04;;;;;;;16.75;4.30;;;20.20;99.90;;;;;;5002599;28;20026;-68
2021/12/04 05:35:32;;;;;;;16.10;4.70;;;20.20;99.90;;;;;;5001105;28;20042;-68
2021/12/04 05:37:59;;;;;;;23.00;6.00;;;20.10;99.90;;;;;;5007583;28;20474;-69
2021/12/04 05:40:27;;;;;;;16.48;5.22;;;20.00;99.90;;;;;;5005109;28;20029;-69
2021/12/04 05:43:00;;;;;;;11.48;4.70;;;20.10;99.90;;;;;;5004179;28;20498;-69
2021/12/04 05:45:29;;;;;;;14.25;5.10;;;20.10;99.90;;;;;;5010247;28;20031;-68
2021/12/04 05:48:08;;;;;;;13.57;4.82;;;19.90;99.90;;;;;;5003429;28;20038;-70
2021/12/04 05:53:39;;;;;;;20.85;6.35;;;20.00;99.90;;;;;;4994772;28;20037;-68
2021/12/04 05:56:07;;;;;;;17.88;5.88;;;20.00;99.90;;;;;;5001261;28;20042;-69
2021/12/04 05:58:34;;;;;;;19.85;6.20;;;19.90;99.90;;;;;;4999016;28;20038;-69
2021/12/04 06:01:04;;;;;;;16.15;5.82;;;19.90;99.90;;;;;;4997271;28;20077;-68
2021/12/04 06:03:32;;;;;;;15.68;5.80;;;19.90;99.90;;;;;;5001090;28;20062;-70
2021/12/04 06:06:00;;;;;;;16.63;5.82;;;20.00;99.90;;;;;;4996387;28;20110;-69
2021/12/04 06:08:28;;;;;;;19.08;4.78;;;20.10;99.90;;;;;;4997093;28;20069;-70
2021/12/04 06:10:56;;;;;;;15.23;5.97;;;20.10;99.90;;;;;;4989284;28;20085;-69
2021/12/04 06:13:24;;;;;;;16.98;5.43;;;19.90;99.90;;;;;;4990391;28;20057;-68
2021/12/04 06:15:53;;;;;;;16.63;6.18;;;19.80;99.90;;;;;;4997855;28;20407;-68
2021/12/04 06:18:21;;;;;;;25.90;6.55;;;19.80;99.90;;;;;;4995841;28;20542;-67
2021/12/04 06:23:36;;;;;;;19.27;7.00;;;19.90;99.90;;;;;;4998109;28;20065;-69
2021/12/04 06:26:07;;;;;;;21.48;6.68;;;19.90;99.90;;;;;;5008193;28;20042;-70
2021/12/04 06:28:35;;;;;;;19.52;6.75;;;19.80;99.90;;;;;;5002377;28;20511;-69
2021/12/04 06:31:04;;;;;;;19.25;6.70;;;19.70;99.90;;;;;;4995357;28;20050;-69
2021/12/04 06:33:32;;;;;;;13.18;6.43;;;19.70;99.90;;;;;;4995639;28;20376;-70
2021/12/04 06:36:00;;;;;;;12.90;5.65;;;19.70;99.90;;;;;;4997437;28;20033;-69
2021/12/04 06:38:27;;;;;;;15.80;6.53;;;19.60;99.90;;;;;;5001710;28;20041;-72
2021/12/04 06:40:55;;;;;;;20.45;7.05;;;19.50;99.90;;;;;;5015638;28;20486;-69
2021/12/04 06:43:23;;;;;;;14.30;6.07;;;19.60;99.90;;;;;;4993449;28;20030;-69
2021/12/04 06:45:58;;;;;;;20.58;7.40;;;19.60;99.90;;;;;;4998596;28;20029;-68
2021/12/04 06:48:34;;;;;;;19.42;6.85;;;19.60;99.90;;;;;;4995456;28;20042;-69
2021/12/04 06:51:08;;;;;;;15.18;7.35;;;19.50;99.90;;;;;;5010950;28;20022;-68
2021/12/04 06:53:43;;;;;;;17.52;6.68;;;19.60;99.90;;;;;;5012969;28;20038;-69
2021/12/04 06:56:12;;;;;;;20.63;6.93;;;19.50;99.90;;;;;;4998070;28;20467;-69
2021/12/04 06:58:40;;;;;;;19.85;7.35;;;19.50;99.90;;;;;;4994203;28;20049;-69
2021/12/04 07:01:10;;;;;;;16.85;6.95;;;19.50;99.90;;;;;;4996268;28;20487;-67
2021/12/04 07:03:39;;;;;;;15.52;7.13;;;19.50;99.90;;;;;;4992423;28;20052;-69
2021/12/04 07:06:07;;;;;;;20.88;7.65;;;19.40;99.90;;;;;;4989739;28;20113;-68
2021/12/04 07:08:35;;;;;;;14.45;7.28;;;19.20;99.90;;;;;;5005329;28;20026;-69
2021/12/04 07:11:05;;;;;;;24.13;9.40;;;19.30;99.90;;;;;;5010446;28;20034;-71
2021/12/04 07:13:33;;;;;;;17.88;7.85;;;19.30;99.90;;;;;;4994425;28;20042;-70
2021/12/04 07:16:04;;;;;;;16.13;6.88;;;19.30;99.90;;;;;;5010141;28;20031;-70
2021/12/04 07:18:32;;;;;;;18.58;8.80;;;19.30;99.90;;;;;;5008255;28;20031;-69
2021/12/04 07:20:59;;;;;;;20.13;7.80;;;19.30;99.90;;;;;;5008299;28;20454;-69
2021/12/04 07:23:27;;;;;;;20.30;7.93;;;19.20;99.90;;;;;;5010825;28;20533;-69
2021/12/04 07:25:57;;;;;;;15.02;8.10;;;19.20;99.90;;;;;;4994466;28;20022;-69
2021/12/04 07:28:24;;;;;;;15.65;7.72;;;19.30;99.90;;;;;;5009015;28;20027;-68
2021/12/04 07:30:52;;;;;;;14.10;8.27;;;19.30;99.90;;;;;;4995921;28;20030;-68
2021/12/04 07:33:19;;;;;;;14.98;8.20;;;19.30;99.90;;;;;;4994181;28;20479;-70
2021/12/04 07:35:47;;;;;;;16.67;9.23;;;19.40;99.90;;;;;;4995170;28;20471;-69
2021/12/04 07:38:14;;;;;;;16.00;8.13;;;19.40;99.90;;;;;;4996454;28;20030;-69
2021/12/04 07:40:43;;;;;;;13.20;7.43;;;19.40;99.90;;;;;;4995110;28;20023;-69
2021/12/04 07:43:11;;;;;;;13.50;7.18;;;19.40;99.90;;;;;;5010008;28;20138;-70
2021/12/04 07:45:39;;;;;;;14.68;6.55;;;19.30;99.90;;;;;;4994526;28;20165;-71
2021/12/04 07:48:06;;;;;;;12.15;7.85;;;19.40;99.90;;;;;;4984141;28;20031;-70
2021/12/04 07:50:35;;;;;;;18.95;9.05;;;19.30;99.90;;;;;;4979660;28;20027;-70
2021/12/04 07:53:02;;;;;;;16.25;7.93;;;19.30;99.90;;;;;;4985113;28;20116;-69
2021/12/04 07:55:31;;;;;;;18.48;9.18;;;19.30;99.90;;;;;;4995311;28;20023;-70
2021/12/04 07:57:59;;;;;;;15.05;7.68;;;19.30;99.90;;;;;;5001297;28;20110;-69
2021/12/04 08:00:27;;;;;;;15.70;8.35;;;19.20;99.90;;;;;;4976956;28;20030;-71
2021/12/04 08:02:55;;;;;;;11.70;8.02;;;19.20;99.90;;;;;;4985624;28;20029;-69
2021/12/04 08:05:23;;;;;;;17.83;9.70;;;19.20;99.90;;;;;;4998255;28;20097;-70
2021/12/04 08:07:50;;;;;;;16.38;8.75;;;19.20;99.90;;;;;;4993541;28;20038;-70
2021/12/04 08:10:19;;;;;;;21.25;10.20;;;19.20;99.90;;;;;;4994047;28;20046;-69
2021/12/04 08:12:47;;;;;;;17.17;8.77;;;19.20;99.90;;;;;;4995569;28;20060;-70
2021/12/04 08:15:17;;;;;;;21.92;9.35;;;19.20;99.90;;;;;;4994368;28;20053;-69
2021/12/04 08:17:45;;;;;;;18.73;9.70;;;19.20;99.90;;;;;;4987770;28;20030;-69
2021/12/04 08:20:14;;;;;;;13.63;8.63;;;19.20;99.90;;;;;;4994470;28;20030;-69
2021/12/04 08:22:42;;;;;;;17.38;9.38;;;19.20;99.90;;;;;;4993077;28;20121;-69
2021/12/04 08:25:16;;;;;;;19.70;9.38;;;19.20;99.90;;;;;;4994161;28;20026;-68
2021/12/04 08:27:43;;;;;;;19.50;9.97;;;19.10;99.90;;;;;;4990871;28;20072;-68
2021/12/04 08:30:16;;;;;;;17.95;9.07;;;19.00;99.90;;;;;;4991802;28;20027;-68
2021/12/04 08:32:44;;;;;;;18.92;11.32;;;19.00;99.90;;;;;;4991217;28;20487;-68
2021/12/04 08:35:14;;;;;;;23.33;10.88;;;19.10;99.90;;;;;;4989014;28;20038;-68
2021/12/04 08:37:41;;;;;;;28.33;11.48;;;19.00;99.90;;;;;;4990386;28;20023;-69
2021/12/04 08:40:13;;;;;;;26.70;10.77;;;19.00;99.90;;;;;;5007500;28;20034;-68
2021/12/04 08:42:45;;;;;;;26.40;12.75;;;19.10;99.90;;;;;;4992208;28;20030;-69
2021/12/04 08:45:14;;;;;;;23.95;11.48;;;19.10;99.90;;;;;;4990357;28;20038;-68
2021/12/04 08:47:42;;;;;;;20.27;11.77;;;19.10;99.90;;;;;;5006779;28;20401;-68
2021/12/04 08:50:14;;;;;;;19.92;10.60;;;19.10;99.90;;;;;;5005669;28;20026;-68
2021/12/04 08:52:42;;;;;;;23.80;12.15;;;19.10;99.90;;;;;;4991932;28;20018;-68
2021/12/04 08:55:10;;;;;;;20.48;9.52;;;19.10;99.90;;;;;;5008238;28;20050;-68
2021/12/04 08:57:38;;;;;;;18.40;9.13;;;19.10;99.90;;;;;;4995914;28;20058;-68
2021/12/04 09:00:15;;;;;;;16.00;10.32;;;19.10;99.90;;;;;;4992716;28;20545;-68
2021/12/04 09:02:44;;;;;;;29.20;9.05;;;19.10;99.90;;;;;;4990558;28;20041;-68
2021/12/04 09:05:14;;;;;;;15.68;9.55;;;19.10;99.90;;;;;;4991990;28;20096;-68
2021/12/04 09:07:45;;;;;;;27.10;9.10;;;19.00;99.90;;;;;;4994029;28;20038;-68
2021/12/04 09:10:13;;;;;;;18.83;9.13;;;19.00;99.90;;;;;;4994695;28;20038;-68
2021/12/04 09:12:42;;;;;;;17.98;9.70;;;19.00;99.90;;;;;;4992088;28;20455;-68
2021/12/04 09:15:12;;;;;;;17.98;9.23;;;19.00;99.90;;;;;;4993360;28;21926;-68
2021/12/04 09:17:39;;;;;;;22.10;10.65;;;19.00;99.90;;;;;;4995696;28;20120;-67
2021/12/04 09:20:08;;;;;;;27.13;9.40;;;19.00;99.90;;;;;;5015868;28;20100;-66
2021/12/04 09:22:37;;;;;;;30.40;11.07;;;19.00;99.90;;;;;;4999565;28;20053;-67
2021/12/04 09:25:12;;;;;;;27.13;11.65;;;18.90;99.90;;;;;;4998638;28;20371;-67
2021/12/04 09:27:59;;;;;;;21.13;9.13;;;19.00;99.90;;;;;;4995994;28;20025;-67
2021/12/04 09:31:03;;;;;;;23.63;9.35;;;19.00;99.90;;;;;;5011040;28;20047;-67
2021/12/04 09:36:44;;;;;;;18.98;8.88;;;19.00;99.90;;;;;;4997045;28;20029;-66
2021/12/04 10:12:38;;;;;;;24.80;8.38;;;19.00;99.90;;;;;;5011248;28;20060;-66
2021/12/04 10:34:50;;;;;;;19.30;5.00;;;18.50;99.90;;;;;;4997326;28;20080;-68
2021/12/04 10:37:24;;;;;;;15.85;4.53;;;18.50;99.90;;;;;;5014107;28;20137;-68
2021/12/04 10:40:02;;;;;;;17.90;5.00;;;18.50;99.90;;;;;;5011891;28;20368;-68
2021/12/04 10:42:39;;;;;;;17.02;4.65;;;18.50;99.90;;;;;;5002589;28;20046;-69
2021/12/04 10:45:07;;;;;;;15.30;4.95;;;18.40;99.90;;;;;;5008408;28;20546;-68
2021/12/04 10:47:35;;;;;;;18.63;4.78;;;18.30;99.90;;;;;;5009687;28;20042;-66
2021/12/04 10:50:28;;;;;;;20.55;4.25;;;18.30;99.90;;;;;;5007752;28;20084;-67
2021/12/04 10:53:00;;;;;;;20.05;3.30;;;18.10;99.90;;;;;;5007236;28;20577;-68
2021/12/04 11:03:43;;;;;;;14.57;3.00;;;17.80;99.90;;;;;;5006637;28;20032;-67
2021/12/04 11:20:51;;;;;;;15.43;3.13;;;17.20;99.90;;;;;;5012333;28;20086;-67
2021/12/04 11:23:34;;;;;;;22.10;4.55;;;17.10;99.90;;;;;;5009214;28;20058;-67
2021/12/04 11:26:26;;;;;;;20.35;4.05;;;16.80;99.90;;;;;;5010088;28;20030;-67
2021/12/04 11:43:00;;;;;;;16.33;3.40;;;17.30;99.90;;;;;;5005633;28;20109;-68
2021/12/04 11:46:00;;;;;;;14.90;2.50;;;17.30;99.90;;;;;;5005391;28;20025;-67
2021/12/04 11:48:30;;;;;;;18.67;2.90;;;17.30;99.90;;;;;;5007189;28;20030;-67
2021/12/04 11:50:58;;;;;;;15.50;3.55;;;17.40;99.90;;;;;;5007690;28;20041;-67
2021/12/04 11:53:26;;;;;;;16.60;2.63;;;17.40;99.90;;;;;;5008420;28;20022;-68
2021/12/04 11:55:54;;;;;;;18.25;3.13;;;17.40;99.90;;;;;;5020213;28;20037;-67
2021/12/04 11:58:25;;;;;;;15.38;2.88;;;17.30;99.90;;;;;;5006370;28;20113;-67
2021/12/04 12:01:02;;;;;;;18.25;3.92;;;17.40;99.90;;;;;;5005469;28;20026;-67
2021/12/04 12:03:35;;;;;;;16.02;3.35;;;17.40;99.90;;;;;;5007198;28;20034;-67
2021/12/04 12:06:10;;;;;;;20.45;3.10;;;17.30;99.90;;;;;;5006864;28;20426;-68
2021/12/04 12:08:45;;;;;;;21.08;3.00;;;17.30;99.90;;;;;;5007151;28;20079;-68
2021/12/04 12:11:20;;;;;;;23.27;3.60;;;17.30;99.90;;;;;;5006331;28;20084;-68
2021/12/04 12:13:57;;;;;;;22.80;3.58;;;17.30;99.90;;;;;;5008121;28;20050;-67
2021/12/04 12:16:28;;;;;;;17.60;3.20;;;17.20;99.90;;;;;;5007968;28;20427;-67
2021/12/04 12:19:00;;;;;;;16.60;3.63;;;17.20;99.90;;;;;;5006232;28;20030;-68
2021/12/04 12:21:41;;;;;;;17.58;3.30;;;17.10;99.90;;;;;;5006800;28;20031;-67
2021/12/04 12:36:10;;;;;;;22.83;3.55;;;16.80;99.90;;;;;;5008335;28;20046;-68
2021/12/04 12:38:50;;;;;;;17.40;3.15;;;16.80;99.90;;;;;;5005650;28;20034;-68
2021/12/04 12:41:22;;;;;;;21.38;2.08;;;16.80;99.90;;;;;;5005675;28;20037;-68
2021/12/04 12:44:12;;;;;;;17.05;2.55;;;16.80;99.90;;;;;;5006593;28;20042;-68
2021/12/04 12:46:49;;;;;;;18.52;3.08;;;16.90;99.90;;;;;;5005720;28;20007;-68
2021/12/04 12:49:24;;;;;;;19.13;3.40;;;17.00;99.90;;;;;;5005245;28;20031;-67
2021/12/04 12:51:58;;;;;;;13.13;2.30;;;17.00;99.90;;;;;;5004212;28;20048;-67
2021/12/04 12:54:37;;;;;;;12.07;2.58;;;17.10;99.90;;;;;;5007317;28;20014;-68
2021/12/04 12:57:11;;;;;;;16.38;2.40;;;17.20;99.90;;;;;;5002611;28;20078;-68
2021/12/04 13:11:40;;;;;;;13.10;1.75;;;17.20;99.90;;;;;;5002107;28;20037;-68
2021/12/04 13:13:41;;;;;;;13.32;2.65;;;17.20;99.90;;;;;;4990594;28;20061;-67
2021/12/04 13:16:18;;;;;;;9.60;2.50;;;17.10;99.90;;;;;;5019319;28;20045;-67
2021/12/04 13:18:52;;;;;;;8.70;2.13;;;17.10;99.90;;;;;;5017601;28;20053;-68
2021/12/04 13:21:20;;;;;;;13.85;3.72;;;17.10;99.90;;;;;;5003952;28;20034;-67
2021/12/04 13:23:55;;;;;;;10.05;2.05;;;17.00;99.90;;;;;;5001542;28;20031;-67
2021/12/04 13:26:32;;;;;;;10.88;1.90;;;17.10;99.90;;;;;;5002895;28;20057;-68
2021/12/04 13:29:01;;;;;;;18.67;2.67;;;17.10;99.90;;;;;;4999561;28;20030;-68
2021/12/04 13:31:30;;;;;;;13.07;3.03;;;17.10;99.90;;;;;;5004996;28;20031;-68
2021/12/04 13:33:57;;;;;;;15.63;2.58;;;17.10;99.90;;;;;;5012018;28;20062;-68
2021/12/04 13:36:28;;;;;;;14.07;2.72;;;17.10;99.90;;;;;;5011784;28;20093;-68
2021/12/04 13:39:10;;;;;;;13.95;2.78;;;17.10;99.90;;;;;;5005539;28;20022;-68
2021/12/04 13:41:40;;;;;;;12.18;1.88;;;17.10;99.90;;;;;;5012332;28;20092;-68
2021/12/04 13:44:10;;;;;;;13.65;1.98;;;17.20;99.90;;;;;;5011156;28;20077;-66
2021/12/04 13:46:47;;;;;;;16.80;3.20;;;17.20;99.90;;;;;;5005716;28;20026;-66
2021/12/04 13:49:18;;;;;;;14.48;2.47;;;17.30;99.90;;;;;;5011743;28;20105;-66
2021/12/04 13:51:56;;;;;;;11.70;1.98;;;17.30;99.90;;;;;;5010748;28;20020;-67
2021/12/04 13:54:26;;;;;;;10.50;1.50;;;17.30;99.90;;;;;;5009645;28;20026;-67
2021/12/04 13:56:54;;;;;;;9.23;1.27;;;17.30;99.90;;;;;;5011456;28;20026;-67
2021/12/04 13:59:24;;;;;;;13.60;1.85;;;17.30;99.90;;;;;;5010748;28;20392;-67
2021/12/04 14:01:52;;;;;;;4.80;1.10;;;17.40;99.90;;;;;;5008370;28;20040;-68
2021/12/04 14:04:20;;;;;;;12.55;1.90;;;17.50;99.90;;;;;;5007278;28;20058;-67
2021/12/04 14:06:55;;;;;;;15.90;2.05;;;17.40;99.90;;;;;;5004336;28;20022;-67
2021/12/04 14:09:36;;;;;;;15.63;2.70;;;17.50;99.90;;;;;;5008279;28;20034;-68
2021/12/04 14:12:06;;;;;;;7.57;1.13;;;17.50;99.90;;;;;;5002872;28;20046;-68
2021/12/04 14:14:35;;;;;;;12.27;1.10;;;17.50;99.90;;;;;;5008951;28;20073;-68
2021/12/04 14:17:17;;;;;;;9.32;2.13;;;17.60;99.90;;;;;;5002910;28;20463;-68
2021/12/04 14:19:45;;;;;;;12.25;1.70;;;17.60;99.90;;;;;;5007880;28;20418;-68
2021/12/04 14:22:18;;;;;;;10.23;1.60;;;17.60;99.90;;;;;;5007114;28;20102;-68
2021/12/04 14:24:57;;;;;;;11.27;2.10;;;17.60;99.90;;;;;;5009204;28;20027;-68
2021/12/04 14:27:27;;;;;;;10.70;1.52;;;17.70;99.90;;;;;;5012574;28;20098;-68
2021/12/04 14:30:01;;;;;;;14.45;1.60;;;17.70;99.90;;;;;;5011038;28;20065;-68
2021/12/04 14:32:30;;;;;;;;;;;17.70;99.90;;;;;;5012356;28;20177;-68
2021/12/04 14:35:17;;;;;;;15.93;2.05;;;17.70;99.90;;;;;;5013779;28;20161;-68
2021/12/04 14:37:50;;;;;;;8.15;1.30;;;17.70;99.90;;;;;;5009114;28;20022;-68
2021/12/04 14:40:24;;;;;;;13.75;1.63;;;17.80;99.90;;;;;;5012576;28;20033;-68
2021/12/04 14:42:54;;;;;;;12.75;1.73;;;17.80;99.90;;;;;;5014711;28;20057;-68
2021/12/04 14:45:24;;;;;;;18.50;1.95;;;17.80;99.90;;;;;;5012790;28;20030;-68
2021/12/04 14:47:56;;;;;;;9.90;1.88;;;17.80;99.90;;;;;;5011582;28;20114;-68
2021/12/04 14:50:27;;;;;;;13.35;1.83;;;17.80;99.90;;;;;;5010688;28;20368;-68
2021/12/04 14:53:01;;;;;;;16.33;1.90;;;17.90;99.90;;;;;;5008346;28;20049;-68
2021/12/04 14:55:35;;;;;;;7.57;1.67;;;17.90;99.90;;;;;;5009476;28;20034;-68
2021/12/04 14:58:07;;;;;;;12.13;1.58;;;17.90;99.90;;;;;;5010104;28;20030;-68
2021/12/04 15:00:44;;;;;;;13.32;2.25;;;17.90;99.90;;;;;;5009111;28;20113;-68
2021/12/04 15:03:36;;;;;;;13.82;1.63;;;17.90;99.90;;;;;;5002178;28;20643;-68
2021/12/04 15:06:07;;;;;;;8.15;1.85;;;17.90;99.90;;;;;;5007270;28;20038;-67
2021/12/04 15:08:39;;;;;;;10.73;1.73;;;17.90;99.90;;;;;;5015104;28;20030;-67
2021/12/04 15:11:14;;;;;;;15.75;1.85;;;17.80;99.90;;;;;;5010898;28;20023;-68
2021/12/04 15:13:53;;;;;;;15.02;1.70;;;17.80;99.90;;;;;;5025875;28;20034;-68
2021/12/04 15:17:07;;;;;;;12.88;2.60;;;17.70;99.90;;;;;;5008852;28;20022;-68
2021/12/04 15:19:22;;;;;;;10.65;1.90;;;17.70;99.90;;;;;;5017983;28;20046;-68
2021/12/04 15:21:57;;;;;;;7.03;1.50;;;17.60;99.90;;;;;;5006091;28;21117;-68
2021/12/04 15:24:38;;;;;;;11.95;1.52;;;17.60;99.90;;;;;;4998044;28;20121;-67
2021/12/04 15:27:08;;;;;;;7.88;1.90;;;17.70;99.90;;;;;;5009033;28;20033;-68
2021/12/04 15:29:37;;;;;;;10.48;2.20;;;17.50;99.90;;;;;;5007799;28;20033;-68
2021/12/04 15:32:12;;;;;;;9.07;1.52;;;17.50;99.90;;;;;;4996974;28;20045;-68
2021/12/04 15:34:52;;;;;;;12.00;1.52;;;17.50;99.90;;;;;;5014172;28;20010;-68
2021/12/04 15:37:36;;;;;;;10.90;1.85;;;17.50;99.90;;;;;;5014145;28;20102;-68
2021/12/04 15:40:07;;;;;;;7.50;1.90;;;17.60;99.90;;;;;;5012873;28;20015;-68
2021/12/04 15:42:55;;;;;;;13.27;1.73;;;17.60;99.90;;;;;;5015123;28;20045;-68
2021/12/04 15:45:29;;;;;;;11.57;1.50;;;17.60;99.90;;;;;;5016509;28;20027;-68
2021/12/04 15:53:31;;;;;;;10.45;1.70;;;17.70;99.90;;;;;;5005806;28;20395;-67
2021/12/04 15:55:58;;;;;;;8.23;1.35;;;17.60;99.90;;;;;;5012918;28;20038;-68
2021/12/04 15:58:33;;;;;;;10.90;1.40;;;17.60;99.90;;;;;;5028819;28;20081;-68
2021/12/04 16:01:11;;;;;;;11.05;2.03;;;17.60;99.90;;;;;;5010116;28;20015;-68